createdAt,value
2023-04-18T00:01:31.793Z,6.10
2023-04-18T00:04:02.975Z,6.10
2023-04-18T00:06:33.195Z,6.00
2023-04-18T00:09:04.072Z,6.00
2023-04-18T00:11:34.455Z,6.00
2023-04-18T00:14:03.121Z,5.90
2023-04-18T00:16:34.921Z,5.90
2023-04-18T00:19:08.729Z,5.90
2023-04-18T00:21:38.415Z,5.80
2023-04-18T00:24:08.169Z,5.80
2023-04-18T00:26:37.887Z,5.80
2023-04-18T00:29:07.238Z,5.70
2023-04-18T00:31:37.578Z,5.70
2023-04-18T00:34:07.067Z,5.70
2023-04-18T00:36:36.485Z,5.70
2023-04-18T00:39:07.496Z,5.70
2023-04-18T00:41:36.978Z,5.70
2023-04-18T00:44:06.546Z,5.70
2023-04-18T00:46:36.310Z,5.60
2023-04-18T00:49:06.290Z,5.60
2023-04-18T00:51:37.204Z,5.60
2023-04-18T00:54:08.433Z,5.60
2023-04-18T00:56:38.032Z,5.50
2023-04-18T00:59:11.084Z,5.50
2023-04-18T01:01:41.593Z,5.50
2023-04-18T01:04:11.298Z,5.40
2023-04-18T01:06:43.937Z,5.40
2023-04-18T01:09:14.946Z,5.40
2023-04-18T01:11:46.245Z,5.30
2023-04-18T01:14:20.670Z,5.30
2023-04-18T01:16:50.084Z,5.20
2023-04-18T01:19:21.450Z,5.20
2023-04-18T01:21:52.581Z,5.20
2023-04-18T01:24:24.151Z,5.20
2023-04-18T01:26:54.773Z,5.10
2023-04-18T01:29:24.237Z,5.10
2023-04-18T01:31:53.735Z,5.10
2023-04-18T01:34:23.257Z,5.00
2023-04-18T01:36:52.701Z,5.10
2023-04-18T01:39:22.139Z,5.00
2023-04-18T01:41:51.575Z,5.00
2023-04-18T01:44:21.029Z,5.00
2023-04-18T01:46:51.772Z,4.90
2023-04-18T01:49:21.397Z,4.90
2023-04-18T01:51:51.320Z,4.90
2023-04-18T01:54:25.337Z,4.90
2023-04-18T01:56:54.697Z,4.80
2023-04-18T01:59:24.205Z,4.80
2023-04-18T02:01:56.753Z,4.80
2023-04-18T02:04:26.529Z,4.80
2023-04-18T02:06:59.276Z,4.80
2023-04-18T02:09:28.829Z,4.80
2023-04-18T02:11:59.515Z,4.80
2023-04-18T02:14:33.199Z,4.90
2023-04-18T02:17:02.760Z,4.90
2023-04-18T02:19:32.319Z,4.90
2023-04-18T02:22:06.681Z,4.90
2023-04-18T02:24:36.084Z,4.90
2023-04-18T02:27:06.920Z,4.90
2023-04-18T02:29:37.459Z,4.90
2023-04-18T02:32:07.428Z,4.90
2023-04-18T02:34:39.438Z,4.90
2023-04-18T02:37:08.907Z,5.00
2023-04-18T02:39:40.186Z,5.00
2023-04-18T02:42:09.625Z,5.00
2023-04-18T02:44:39.037Z,5.00
2023-04-18T02:47:08.637Z,5.10
2023-04-18T02:49:40.811Z,5.00
2023-04-18T02:52:11.397Z,5.10
2023-04-18T02:54:40.888Z,5.00
2023-04-18T02:57:13.859Z,5.00
2023-04-18T02:59:57.306Z,5.00
2023-04-18T03:02:46.674Z,5.00
2023-04-18T03:05:25.418Z,5.00
2023-04-18T03:07:56.580Z,5.00
2023-04-18T03:10:26.082Z,5.00
2023-04-18T03:12:55.819Z,5.00
2023-04-18T03:15:25.492Z,5.10
2023-04-18T03:17:55.101Z,5.10
2023-04-18T03:20:25.626Z,5.10
2023-04-18T03:22:56.202Z,5.00
2023-04-18T03:25:27.096Z,5.00
2023-04-18T03:27:56.576Z,5.00
2023-04-18T03:30:26.961Z,5.00
2023-04-18T03:32:57.189Z,5.00
2023-04-18T03:35:28.252Z,5.00
2023-04-18T03:37:58.243Z,5.00
2023-04-18T03:40:29.416Z,5.00
2023-04-18T03:43:00.549Z,5.00
2023-04-18T03:45:30.180Z,5.00
2023-04-18T03:47:59.793Z,5.00
2023-04-18T03:50:29.681Z,5.10
2023-04-18T03:52:59.770Z,5.00
2023-04-18T03:55:30.990Z,5.10
2023-04-18T03:58:02.064Z,5.10
2023-04-18T04:00:33.832Z,5.10
2023-04-18T04:03:05.134Z,5.10
2023-04-18T04:05:34.716Z,5.10
2023-04-18T04:08:05.782Z,5.10
2023-04-18T04:10:35.933Z,5.10
2023-04-18T04:13:08.444Z,5.10
2023-04-18T04:15:40.076Z,5.10
2023-04-18T04:18:12.600Z,5.10
2023-04-18T04:20:44.703Z,5.10
2023-04-18T04:23:15.883Z,5.10
2023-04-18T04:25:46.457Z,5.10
2023-04-18T04:28:24.723Z,5.20
2023-04-18T04:30:56.302Z,5.20
2023-04-18T04:33:32.250Z,5.20
2023-04-18T04:36:03.002Z,5.20
2023-04-18T04:38:34.350Z,5.20
2023-04-18T04:41:07.317Z,5.20
2023-04-18T04:43:37.940Z,5.20
2023-04-18T04:46:07.844Z,5.20
2023-04-18T04:48:37.444Z,5.20
2023-04-18T04:51:06.958Z,5.20
2023-04-18T04:53:37.117Z,5.30
2023-04-18T04:56:06.955Z,5.30
2023-04-18T04:58:36.333Z,5.30
2023-04-18T05:01:11.434Z,5.40
2023-04-18T05:03:41.368Z,5.40
2023-04-18T05:06:10.895Z,5.40
2023-04-18T05:08:40.460Z,5.40
2023-04-18T05:11:09.825Z,5.50
2023-04-18T05:13:39.259Z,5.50
2023-04-18T05:16:08.764Z,5.50
2023-04-18T05:18:39.887Z,5.60
2023-04-18T05:21:09.400Z,5.60
2023-04-18T05:23:38.897Z,5.60
2023-04-18T05:26:08.416Z,5.60
2023-04-18T05:28:37.842Z,5.70
2023-04-18T05:31:07.267Z,5.70
2023-04-18T05:33:36.693Z,5.80
2023-04-18T05:36:06.677Z,5.80
2023-04-18T05:38:36.171Z,5.80
2023-04-18T05:41:05.704Z,5.90
2023-04-18T05:43:35.207Z,5.90
2023-04-18T05:46:04.885Z,6.00
2023-04-18T05:48:34.267Z,6.00
2023-04-18T05:51:04.809Z,6.00
2023-04-18T05:53:34.232Z,6.00
2023-04-18T05:56:03.871Z,6.10
2023-04-18T05:58:33.354Z,6.20
2023-04-18T06:01:02.925Z,6.20
2023-04-18T06:03:32.598Z,6.20
2023-04-18T06:06:02.376Z,6.30
2023-04-18T06:08:31.856Z,6.30
2023-04-18T06:11:01.282Z,6.30
2023-04-18T06:13:30.855Z,6.40
2023-04-18T06:16:01.939Z,6.40
2023-04-18T06:18:31.481Z,6.50
2023-04-18T06:21:01.179Z,6.50
2023-04-18T06:23:30.776Z,6.50
2023-04-18T06:26:00.264Z,6.60
2023-04-18T06:28:29.801Z,6.60
2023-04-18T06:30:59.317Z,6.70
2023-04-18T06:33:28.822Z,6.70
2023-04-18T06:35:59.193Z,6.70
2023-04-18T06:38:28.731Z,6.70
2023-04-18T06:40:58.168Z,6.70
2023-04-18T06:43:27.648Z,6.80
2023-04-18T06:45:57.158Z,6.80
2023-04-18T06:48:26.637Z,6.80
2023-04-18T06:50:56.006Z,6.80
2023-04-18T06:53:25.490Z,6.90
2023-04-18T06:55:55.121Z,6.90
2023-04-18T06:58:24.616Z,7.00
2023-04-18T07:00:54.114Z,7.00
2023-04-18T07:03:23.621Z,7.00
2023-04-18T07:05:53.310Z,7.10
2023-04-18T07:08:22.752Z,7.10
2023-04-18T07:10:52.912Z,7.10
2023-04-18T07:13:22.285Z,7.10
2023-04-18T07:15:51.724Z,7.20
2023-04-18T07:18:34.325Z,7.20
2023-04-18T07:20:52.250Z,7.20
2023-04-18T07:23:21.852Z,7.20
2023-04-18T07:25:51.401Z,7.30
2023-04-18T07:28:21.041Z,7.30
2023-04-18T07:30:50.575Z,7.30
2023-04-18T07:33:20.669Z,7.30
2023-04-18T07:35:50.349Z,7.40
2023-04-18T07:38:19.854Z,7.40
2023-04-18T07:40:57.783Z,7.40
2023-04-18T07:43:27.691Z,7.50
2023-04-18T07:45:57.349Z,7.50
2023-04-18T07:48:26.930Z,7.50
2023-04-18T07:50:56.411Z,7.50
2023-04-18T07:53:26.062Z,7.60
2023-04-18T07:55:55.925Z,7.60
2023-04-18T07:58:25.335Z,7.60
2023-04-18T08:00:54.758Z,7.70
2023-04-18T08:03:24.546Z,7.70
2023-04-18T08:05:54.443Z,7.70
2023-04-18T08:08:23.844Z,7.80
2023-04-18T08:10:53.261Z,7.80
2023-04-18T08:13:22.807Z,7.80
2023-04-18T08:15:52.573Z,7.80
2023-04-18T08:18:23.086Z,7.90
2023-04-18T08:20:52.563Z,7.90
2023-04-18T08:23:22.010Z,7.90
2023-04-18T08:25:51.506Z,8.00
2023-04-18T08:28:20.966Z,8.00
2023-04-18T08:30:51.352Z,8.00
2023-04-18T08:33:19.967Z,8.00
2023-04-18T08:35:50.929Z,8.10
2023-04-18T08:38:20.588Z,8.10
2023-04-18T08:40:50.138Z,8.10
2023-04-18T08:43:19.626Z,8.10
2023-04-18T08:45:49.162Z,8.20
2023-04-18T08:48:19.484Z,8.20
2023-04-18T08:50:48.903Z,8.20
2023-04-18T08:53:18.564Z,8.20
2023-04-18T08:55:49.889Z,8.30
2023-04-18T08:58:24.410Z,8.30
2023-04-18T09:00:54.610Z,8.40
2023-04-18T09:03:44.137Z,8.40
2023-04-18T09:06:17.412Z,8.40
2023-04-18T09:08:59.030Z,8.50
2023-04-18T09:11:31.729Z,8.50
2023-04-18T09:14:02.312Z,8.50
2023-04-18T09:16:34.886Z,8.60
2023-04-18T09:19:17.625Z,8.60
2023-04-18T09:21:48.669Z,8.70
2023-04-18T09:24:24.168Z,8.70
2023-04-18T09:26:55.935Z,8.70
2023-04-18T09:29:45.187Z,8.80
2023-04-18T09:32:29.366Z,8.80
2023-04-18T09:35:04.602Z,8.90
2023-04-18T09:37:34.009Z,8.90
2023-04-18T09:40:06.569Z,8.90
2023-04-18T09:42:38.968Z,9.00
2023-04-18T09:45:09.098Z,9.00
2023-04-18T09:47:38.537Z,9.00
2023-04-18T09:50:10.270Z,9.10
2023-04-18T09:52:42.105Z,9.20
2023-04-18T09:55:17.252Z,9.20
2023-04-18T09:57:48.957Z,9.20
2023-04-18T10:00:26.850Z,9.30
2023-04-18T10:03:08.537Z,9.40
2023-04-18T10:05:41.395Z,9.40
2023-04-18T10:08:11.428Z,9.50
2023-04-18T10:10:41.527Z,9.50
2023-04-18T10:13:14.212Z,9.60
2023-04-18T10:15:45.556Z,9.60
2023-04-18T10:18:17.852Z,9.70
2023-04-18T10:20:48.322Z,9.80
2023-04-18T10:23:38.201Z,9.80
2023-04-18T10:26:08.652Z,9.80
2023-04-18T10:28:53.292Z,9.90
2023-04-18T10:31:25.973Z,10.00
2023-04-18T10:36:29.003Z,10.10
2023-04-18T10:39:06.981Z,10.20
2023-04-18T10:41:38.426Z,10.30
2023-04-18T10:44:12.670Z,10.30
2023-04-18T10:47:01.726Z,10.40
2023-04-18T10:49:34.380Z,10.40
2023-04-18T10:52:06.583Z,10.50
2023-04-18T10:54:58.916Z,10.50
2023-04-18T10:57:30.767Z,10.60
2023-04-18T11:00:00.945Z,10.60
2023-04-18T11:02:33.312Z,10.70
2023-04-18T11:05:04.876Z,10.80
2023-04-18T11:07:49.014Z,10.80
2023-04-18T11:10:20.759Z,10.80
2023-04-18T11:12:50.709Z,10.90
2023-04-18T11:15:24.676Z,11.00
2023-04-18T11:17:59.810Z,11.00
2023-04-18T11:20:30.912Z,11.10
2023-04-18T11:23:01.379Z,11.10
2023-04-18T11:25:35.101Z,11.20
2023-04-18T11:28:05.873Z,11.20
2023-04-18T11:30:39.708Z,11.20
2023-04-18T11:33:13.202Z,11.30
2023-04-18T11:35:45.338Z,11.30
2023-04-18T11:38:16.024Z,11.30
2023-04-18T11:40:52.078Z,11.30
2023-04-18T11:43:25.787Z,11.30
2023-04-18T11:46:00.238Z,11.40
2023-04-18T11:48:38.171Z,11.40
2023-04-18T11:51:09.348Z,11.50
2023-04-18T11:53:39.572Z,11.50
2023-04-18T11:56:09.197Z,11.50
2023-04-18T11:58:38.637Z,11.50
2023-04-18T12:01:20.213Z,11.50
2023-04-18T12:04:09.281Z,11.50
2023-04-18T12:06:54.845Z,11.50
2023-04-18T12:09:25.988Z,11.50
2023-04-18T12:12:04.256Z,11.50
2023-04-18T12:14:35.153Z,11.50
2023-04-18T12:17:05.337Z,11.50
2023-04-18T12:19:34.751Z,11.50
2023-04-18T12:22:06.284Z,11.60
2023-04-18T12:24:36.017Z,11.60
2023-04-18T12:27:05.473Z,11.70
2023-04-18T12:29:34.894Z,11.70
2023-04-18T12:32:04.524Z,11.80
2023-04-18T12:34:33.905Z,11.80
2023-04-18T12:37:04.949Z,11.90
2023-04-18T12:39:34.336Z,11.90
2023-04-18T12:45:28.016Z,12.00
2023-04-18T12:47:57.545Z,12.00
2023-04-18T12:50:28.140Z,12.00
2023-04-18T12:53:00.147Z,12.00
2023-04-18T12:55:29.822Z,12.10
2023-04-18T12:57:59.335Z,12.00
2023-04-18T13:00:31.376Z,12.00
2023-04-18T13:03:01.424Z,12.00
2023-04-18T13:05:33.436Z,12.00
2023-04-18T13:08:15.173Z,12.00
2023-04-18T13:10:33.928Z,12.00
2023-04-18T13:13:03.416Z,12.10
2023-04-18T13:15:33.469Z,12.10
2023-04-18T13:18:04.949Z,12.10
2023-04-18T13:20:36.502Z,12.10
2023-04-18T13:23:06.052Z,12.10
2023-04-18T13:25:35.459Z,12.00
2023-04-18T13:28:05.029Z,12.10
2023-04-18T13:30:35.742Z,12.10
2023-04-18T13:36:41.244Z,12.20
2023-04-18T13:39:11.166Z,12.20
2023-04-18T13:41:40.564Z,12.30
2023-04-18T13:44:10.005Z,12.20
2023-04-18T13:46:39.324Z,12.20
2023-04-18T13:49:08.859Z,12.20
2023-04-18T13:51:38.298Z,12.20
2023-04-18T13:54:07.855Z,12.20
2023-04-18T13:56:37.283Z,12.30
2023-04-18T13:59:06.795Z,12.30
2023-04-18T14:01:36.335Z,12.20
2023-04-18T14:04:06.410Z,12.20
2023-04-18T14:06:35.493Z,12.20
2023-04-18T14:09:06.698Z,12.20
2023-04-18T14:11:36.565Z,12.20
2023-04-18T14:14:06.861Z,12.20
2023-04-18T14:16:36.397Z,12.30
2023-04-18T14:19:05.893Z,12.20
2023-04-18T14:21:35.850Z,12.20
2023-04-18T14:24:06.761Z,12.20
2023-04-18T14:26:36.311Z,12.20
2023-04-18T14:29:06.132Z,12.20
2023-04-18T14:31:35.782Z,12.20
2023-04-18T14:34:05.688Z,12.10
2023-04-18T14:36:36.622Z,12.10
2023-04-18T14:39:06.047Z,12.10
2023-04-18T14:41:35.692Z,12.00
2023-04-18T14:44:05.663Z,12.00
2023-04-18T14:46:35.261Z,12.00
2023-04-18T14:49:04.677Z,12.00
2023-04-18T14:51:34.114Z,12.10
2023-04-18T14:54:03.629Z,12.00
2023-04-18T14:56:33.043Z,12.00
2023-04-18T14:59:02.749Z,12.00
2023-04-18T15:01:32.314Z,12.00
2023-04-18T15:04:03.450Z,12.00
2023-04-18T15:06:33.327Z,12.00
2023-04-18T15:09:02.698Z,11.90
2023-04-18T15:11:32.235Z,11.90
2023-04-18T15:14:01.569Z,11.90
2023-04-18T15:16:32.059Z,11.90
2023-04-18T15:19:01.467Z,11.90
2023-04-18T15:21:30.913Z,11.90
2023-04-18T15:24:00.461Z,11.90
2023-04-18T15:26:31.687Z,11.90
2023-04-18T15:29:04.261Z,11.90
2023-04-18T15:31:34.125Z,11.90
2023-04-18T15:34:03.728Z,11.80
2023-04-18T15:36:33.142Z,11.70
2023-04-18T15:39:06.655Z,11.70
2023-04-18T15:41:37.623Z,11.70
2023-04-18T15:44:08.028Z,11.70
2023-04-18T15:46:38.082Z,11.60
2023-04-18T15:49:07.588Z,11.60
2023-04-18T15:51:37.149Z,11.50
2023-04-18T15:54:06.725Z,11.50
2023-04-18T15:56:36.867Z,11.40
2023-04-18T15:59:07.186Z,11.40
2023-04-18T16:01:36.690Z,11.40
2023-04-18T16:04:06.185Z,11.30
2023-04-18T16:06:35.741Z,11.30
2023-04-18T16:09:06.767Z,11.20
2023-04-18T16:11:36.108Z,11.20
2023-04-18T16:14:05.552Z,11.20
2023-04-18T16:16:34.929Z,11.20
2023-04-18T16:19:05.472Z,11.20
2023-04-18T16:21:34.809Z,11.10
2023-04-18T16:24:04.320Z,11.10
2023-04-18T16:26:33.768Z,11.10
2023-04-18T16:29:03.413Z,11.00
2023-04-18T16:31:33.989Z,11.00
2023-04-18T16:34:03.639Z,10.90
2023-04-18T16:36:37.265Z,10.90
2023-04-18T16:39:06.712Z,10.80
2023-04-18T16:41:36.106Z,10.80
2023-04-18T16:44:05.851Z,10.80
2023-04-18T16:46:35.237Z,10.70
2023-04-18T16:49:04.770Z,10.60
2023-04-18T16:51:35.839Z,10.60
2023-04-18T16:54:06.184Z,10.60
2023-04-18T16:56:34.928Z,10.60
2023-04-18T16:59:04.404Z,10.50
2023-04-18T17:01:33.996Z,10.50
2023-04-18T17:04:04.029Z,10.50
2023-04-18T17:06:33.941Z,10.40
2023-04-18T17:09:05.130Z,10.40
2023-04-18T17:11:38.145Z,10.40
2023-04-18T17:14:08.460Z,10.40
2023-04-18T17:16:41.785Z,10.40
2023-04-18T17:19:12.137Z,10.30
2023-04-18T17:21:40.911Z,10.30
2023-04-18T17:24:10.435Z,10.30
2023-04-18T17:26:40.499Z,10.30
2023-04-18T17:29:10.434Z,10.20
2023-04-18T17:31:39.903Z,10.20
2023-04-18T17:34:09.467Z,10.20
2023-04-18T17:36:38.917Z,10.20
2023-04-18T17:39:09.715Z,10.20
2023-04-18T17:41:40.305Z,10.10
2023-04-18T17:44:10.359Z,10.10
2023-04-18T17:46:39.807Z,10.00
2023-04-18T17:49:09.614Z,10.00
2023-04-18T17:51:38.990Z,10.00
2023-04-18T17:54:08.757Z,9.90
2023-04-18T17:56:38.229Z,9.90
2023-04-18T17:59:07.635Z,9.80
2023-04-18T18:01:37.085Z,9.80
2023-04-18T18:04:06.693Z,9.70
2023-04-18T18:06:36.303Z,9.70
2023-04-18T18:09:05.697Z,9.70
2023-04-18T18:11:35.166Z,9.60
2023-04-18T18:14:04.540Z,9.60
2023-04-18T18:16:34.019Z,9.60
2023-04-18T18:19:03.515Z,9.60
2023-04-18T18:21:33.001Z,9.50
2023-04-18T18:24:02.424Z,9.50
2023-04-18T18:26:31.829Z,9.40
2023-04-18T18:29:02.065Z,9.40
2023-04-18T18:31:31.501Z,9.30
2023-04-18T18:34:01.061Z,9.30
2023-04-18T18:36:31.274Z,9.20
2023-04-18T18:39:00.660Z,9.20
2023-04-18T18:41:30.574Z,9.10
2023-04-18T18:44:00.037Z,9.00
2023-04-18T18:46:29.445Z,9.00
2023-04-18T18:48:58.842Z,9.00
2023-04-18T18:51:29.116Z,8.90
2023-04-18T18:53:58.534Z,8.90
2023-04-18T18:56:28.023Z,8.90
2023-04-18T18:58:57.582Z,8.90
2023-04-18T19:01:28.633Z,8.90
2023-04-18T19:03:58.307Z,8.80
2023-04-18T19:06:28.011Z,8.80
2023-04-18T19:08:57.359Z,8.80
2023-04-18T19:11:27.287Z,8.80
2023-04-18T19:13:56.649Z,8.70
2023-04-18T19:16:26.392Z,8.60
2023-04-18T19:18:55.717Z,8.60
2023-04-18T19:21:25.878Z,8.60
2023-04-18T19:23:55.677Z,8.50
2023-04-18T19:26:25.157Z,8.50
2023-04-18T19:28:54.644Z,8.40
2023-04-18T19:31:24.154Z,8.40
2023-04-18T19:33:53.526Z,8.40
2023-04-18T19:36:22.916Z,8.40
2023-04-18T19:38:52.357Z,8.30
2023-04-18T19:41:21.852Z,8.30
2023-04-18T19:43:51.270Z,8.30
2023-04-18T19:46:20.805Z,8.30
2023-04-18T19:48:50.386Z,8.20
2023-04-18T19:51:19.980Z,8.20
2023-04-18T19:53:49.403Z,8.20
2023-04-18T19:56:18.808Z,8.20
2023-04-18T19:58:49.042Z,8.10
2023-04-18T20:01:21.078Z,8.10
2023-04-18T20:03:50.922Z,8.10
2023-04-18T20:06:20.681Z,8.00
2023-04-18T20:08:50.117Z,8.00
2023-04-18T20:11:19.949Z,7.90
2023-04-18T20:13:49.705Z,7.80
2023-04-18T20:16:19.402Z,7.80
2023-04-18T20:18:49.902Z,7.80
2023-04-18T20:21:19.338Z,7.80
2023-04-18T20:23:48.739Z,7.70
2023-04-18T20:26:18.125Z,7.70
2023-04-18T20:28:47.537Z,7.70
2023-04-18T20:31:17.066Z,7.60
2023-04-18T20:33:46.677Z,7.60
2023-04-18T20:36:17.556Z,7.50
2023-04-18T20:38:47.100Z,7.50
2023-04-18T20:41:18.579Z,7.50
2023-04-18T20:43:48.064Z,7.50
2023-04-18T20:46:17.470Z,7.50
2023-04-18T20:48:46.855Z,7.40
2023-04-18T20:51:16.281Z,7.40
2023-04-18T20:53:45.845Z,7.40
2023-04-18T20:56:15.190Z,7.40
2023-04-18T20:58:44.676Z,7.40
2023-04-18T21:01:14.115Z,7.40
2023-04-18T21:03:43.756Z,7.30
2023-04-18T21:06:13.381Z,7.30
2023-04-18T21:08:42.835Z,7.20
2023-04-18T21:11:12.187Z,7.20
2023-04-18T21:13:41.906Z,7.30
2023-04-18T21:16:11.406Z,7.30
2023-04-18T21:18:40.850Z,7.20
2023-04-18T21:21:10.274Z,7.20
2023-04-18T21:23:44.617Z,7.20
2023-04-18T21:26:14.360Z,7.20
2023-04-18T21:28:57.940Z,7.20
2023-04-18T21:31:29.502Z,7.30
2023-04-18T21:34:00.804Z,7.20
2023-04-18T21:36:31.199Z,7.20
2023-04-18T21:39:01.658Z,7.20
2023-04-18T21:41:31.116Z,7.20
2023-04-18T21:44:00.622Z,7.20
2023-04-18T21:46:30.231Z,7.20
2023-04-18T21:48:59.710Z,7.10
2023-04-18T21:51:29.146Z,7.10
2023-04-18T21:53:59.047Z,7.10
2023-04-18T21:56:28.448Z,7.10
2023-04-18T21:58:57.876Z,7.10
2023-04-18T22:01:27.306Z,7.00
2023-04-18T22:03:56.946Z,7.00
2023-04-18T22:06:26.979Z,7.00
2023-04-18T22:08:56.516Z,6.90
2023-04-18T22:11:26.017Z,6.90
2023-04-18T22:13:57.085Z,6.90
2023-04-18T22:16:28.111Z,6.80
2023-04-18T22:18:57.754Z,6.80
2023-04-18T22:21:27.484Z,6.80
2023-04-18T22:23:56.879Z,6.90
2023-04-18T22:26:26.273Z,6.80
2023-04-18T22:28:55.784Z,6.80
2023-04-18T22:31:25.368Z,6.80
2023-04-18T22:33:54.897Z,6.70
2023-04-18T22:36:24.409Z,6.70
2023-04-18T22:38:53.747Z,6.70
2023-04-18T22:41:23.277Z,6.70
2023-04-18T22:43:52.809Z,6.60
2023-04-18T22:46:22.668Z,6.60
2023-04-18T22:48:51.985Z,6.60
2023-04-18T22:51:23.082Z,6.50
2023-04-18T22:53:52.418Z,6.50
2023-04-18T22:56:21.993Z,6.50
2023-04-18T22:58:51.417Z,6.40
2023-04-18T23:01:20.956Z,6.40
2023-04-18T23:03:50.421Z,6.40
2023-04-18T23:06:21.093Z,6.40
2023-04-18T23:08:49.669Z,6.40
2023-04-18T23:11:18.958Z,6.40
2023-04-18T23:13:48.369Z,6.30
2023-04-18T23:16:17.923Z,6.30
2023-04-18T23:18:47.466Z,6.20
2023-04-18T23:21:17.357Z,6.20
2023-04-18T23:23:46.885Z,6.20
2023-04-18T23:26:16.948Z,6.20
2023-04-18T23:28:46.427Z,6.10
2023-04-18T23:31:16.062Z,6.10
2023-04-18T23:33:45.656Z,6.10
2023-04-18T23:36:14.983Z,6.00
2023-04-18T23:38:44.579Z,6.00
2023-04-18T23:41:14.008Z,6.00
2023-04-18T23:43:43.488Z,6.00
2023-04-18T23:46:12.997Z,6.00
2023-04-18T23:48:42.544Z,6.00
2023-04-18T23:51:11.981Z,5.90
2023-04-18T23:53:41.537Z,5.90
2023-04-18T23:56:10.889Z,5.90
2023-04-18T23:58:40.364Z,5.90
